This is the latest recevied weather packets stored in our database for station/object OE-11208. If no packets are shown the sender has not sent any weather packets the latest 10 day(s).
| Time | Temp. | Humidity | Pressure | Rain* | Wind** | Luminosity | Snow |
|---|---|---|---|---|---|---|---|
| 1788033922 | 12.22° C | 91% | 1018.6 hPa | 0 mm | - | 0 W/m² | - |
| 1788033322 | 12.22° C | 92% | 1018.5 hPa | 0 mm | - | 0 W/m² | - |
| 1788032495 | 12.78° C | 89% | 1018.3 hPa | 0 mm | - | 0 W/m² | - |
| 1788032122 | 13.33° C | 89% | 1018.1 hPa | 0 mm | - | 0 W/m² | - |
| 1788031522 | 13.33° C | 90% | 1018 hPa | 0 mm | - | 0 W/m² | - |
| 1788030695 | 13.89° C | 87% | 1017.5 hPa | 0 mm | - | 0 W/m² | - |
| 1788030322 | 13.89° C | 86% | 1017.3 hPa | 0 mm | - | 0 W/m² | - |
| 1788029722 | 13.89° C | 86% | 1017.2 hPa | 0 mm | - | 0 W/m² | - |
| 1788028895 | 14.44° C | 85% | 1016.8 hPa | 0 mm | - | 0 W/m² | - |
| 1788028522 | 15° C | 83% | 1016.6 hPa | 0 mm | - | 0 W/m² | - |
| 1788027922 | 15° C | 81% | 1016.4 hPa | 0 mm | - | 0 W/m² | - |
| 1788027095 | 16.11° C | 79% | 1016.1 hPa | 0 mm | - | 0 W/m² | - |
| 1788026722 | 16.67° C | 78% | 1015.9 hPa | 0 mm | - | 7 W/m² | - |
| 1788026122 | 16.67° C | 76% | 1015.8 hPa | 0 mm | - | 13 W/m² | - |
| 1788025295 | 16.67° C | 80% | 1015.7 hPa | 0 mm | - | 13 W/m² | - |
| 1788024922 | 17.78° C | 72% | 1015.4 hPa | 0 mm | - | 20 W/m² | - |
| 1788024322 | 17.78° C | 75% | 1015.4 hPa | 0 mm | - | 27 W/m² | - |
| 1788023495 | 17.78° C | 72% | 1015.4 hPa | 0 mm | - | 34 W/m² | - |
| 1788023121 | 18.89° C | 69% | 1015.1 hPa | 0 mm | - | 40 W/m² | - |
| 1788022522 | 18.89° C | 70% | 1014.9 hPa | 0 mm | - | 47 W/m² | - |
| 1788021695 | 20° C | 73% | 1014.6 hPa | 0 mm | - | 94 W/m² | - |
| 1788021322 | 20° C | 67% | 1014.5 hPa | 0 mm | - | 175 W/m² | - |
| 1788020721 | 20° C | 65% | 1014.3 hPa | 0 mm | - | 128 W/m² | - |
| 1788019895 | 20.56° C | 52% | 1014.3 hPa | 0 mm | - | 168 W/m² | - |
| 1788019522 | 21.11° C | 52% | 1014 hPa | 0 mm | - | 208 W/m² | - |
* Rain latest hour (hover to see other rain measurements)
** Current wind speed in m/s (hover to see current wind gust speed)